createdAt,value
2022-12-15T00:00:45.937Z,21.20
2022-12-15T00:03:32.214Z,19.77
2022-12-15T00:06:19.019Z,18.97
2022-12-15T00:09:07.466Z,18.77
2022-12-15T00:11:55.541Z,18.80
2022-12-15T00:14:44.839Z,19.90
2022-12-15T00:17:32.580Z,21.80
2022-12-15T00:20:17.863Z,19.67
2022-12-15T00:23:05.846Z,16.53
2022-12-15T00:25:53.889Z,20.13
2022-12-15T00:28:39.685Z,19.43
2022-12-15T00:31:26.761Z,18.87
2022-12-15T00:34:12.452Z,18.60
2022-12-15T00:36:58.203Z,19.13
2022-12-15T00:39:26.417Z,15.13
2022-12-15T00:41:54.622Z,19.63
2022-12-15T00:44:23.223Z,19.10
2022-12-15T00:46:57.534Z,18.20
2022-12-15T00:49:44.494Z,17.53
2022-12-15T00:52:30.771Z,18.60
2022-12-15T00:55:16.258Z,23.47
2022-12-15T00:58:02.630Z,19.10
2022-12-15T01:00:49.003Z,19.00
2022-12-15T01:03:38.023Z,19.77
2022-12-15T01:06:24.538Z,15.40
2022-12-15T01:09:10.300Z,20.37
2022-12-15T01:11:56.076Z,21.50
2022-12-15T01:14:44.657Z,18.50
2022-12-15T01:17:32.801Z,19.20
2022-12-15T01:20:15.104Z,16.87
2022-12-15T01:22:43.467Z,19.60
2022-12-15T01:25:12.716Z,17.40
2022-12-15T01:27:40.910Z,19.60
2022-12-15T01:30:11.562Z,17.73
2022-12-15T01:32:45.716Z,16.57
2022-12-15T01:35:16.038Z,19.40
2022-12-15T01:37:44.268Z,18.77
2022-12-15T01:40:34.288Z,16.77
2022-12-15T01:43:05.005Z,18.57
2022-12-15T01:45:56.175Z,16.17
2022-12-15T01:48:29.428Z,18.70
2022-12-15T01:51:23.303Z,18.33
2022-12-15T01:54:00.715Z,19.67
2022-12-15T01:56:35.509Z,17.80
2022-12-15T01:59:10.586Z,18.03
2022-12-15T02:01:40.870Z,16.70
2022-12-15T02:04:12.288Z,19.17
2022-12-15T02:06:41.764Z,18.10
2022-12-15T02:09:10.023Z,19.83
2022-12-15T02:11:53.143Z,20.67
2022-12-15T02:14:29.571Z,18.97
2022-12-15T02:17:15.402Z,19.87
2022-12-15T02:20:36.577Z,18.73
2022-12-15T02:23:53.072Z,18.73
2022-12-15T02:27:04.288Z,18.93
2022-12-15T02:30:17.811Z,15.20
2022-12-15T02:33:06.271Z,17.07
2022-12-15T02:35:50.939Z,20.17
2022-12-15T02:38:33.388Z,26.87
2022-12-15T02:41:03.050Z,22.80
2022-12-15T02:43:34.558Z,26.57
2022-12-15T02:46:18.011Z,22.47
2022-12-15T02:48:59.186Z,21.33
2022-12-15T02:51:38.200Z,26.70
2022-12-15T02:54:36.274Z,21.10
2022-12-15T02:57:16.119Z,20.57
2022-12-15T02:59:55.369Z,20.47
2022-12-15T03:02:27.940Z,18.00
2022-12-15T03:04:56.775Z,19.80
2022-12-15T03:07:27.788Z,17.30
2022-12-15T03:09:57.146Z,19.33
2022-12-15T03:12:25.523Z,16.63
2022-12-15T03:14:53.603Z,17.53
2022-12-15T03:17:21.837Z,20.03
2022-12-15T03:19:51.312Z,16.80
2022-12-15T03:22:22.241Z,13.57
2022-12-15T03:24:52.525Z,18.30
2022-12-15T03:27:20.636Z,16.03
2022-12-15T03:29:48.716Z,21.30
2022-12-15T03:32:16.856Z,17.63
2022-12-15T03:34:45.162Z,22.57
2022-12-15T03:37:14.596Z,16.50
2022-12-15T03:39:42.788Z,15.63
2022-12-15T03:42:13.289Z,16.67
2022-12-15T03:44:41.354Z,18.30
2022-12-15T03:47:09.409Z,24.00
2022-12-15T03:49:37.541Z,18.17
2022-12-15T03:52:05.706Z,16.47
2022-12-15T03:54:37.436Z,16.37
2022-12-15T03:57:07.068Z,17.53
2022-12-15T03:59:35.170Z,17.43
2022-12-15T04:02:03.332Z,17.20
2022-12-15T04:04:31.797Z,14.07
2022-12-15T04:07:00.172Z,16.47
2022-12-15T04:09:30.334Z,16.40
2022-12-15T04:11:59.721Z,16.30
2022-12-15T04:14:30.248Z,15.60
2022-12-15T04:17:00.826Z,14.83
2022-12-15T04:19:46.535Z,12.63
2022-12-15T04:22:17.889Z,11.77
2022-12-15T04:25:03.645Z,15.13
2022-12-15T04:27:50.500Z,14.50
2022-12-15T04:30:38.534Z,13.80
2022-12-15T04:33:30.495Z,13.87
2022-12-15T04:36:16.046Z,14.73
2022-12-15T04:39:04.189Z,13.27
2022-12-15T04:41:52.621Z,17.10
2022-12-15T04:44:39.913Z,13.80
2022-12-15T04:47:25.579Z,13.87
2022-12-15T04:50:11.048Z,15.67
2022-12-15T04:52:59.433Z,18.03
2022-12-15T04:55:44.767Z,16.10
2022-12-15T04:58:30.278Z,16.43
2022-12-15T05:01:17.530Z,17.67
2022-12-15T05:04:03.166Z,14.37
2022-12-15T05:06:48.647Z,16.27
2022-12-15T05:09:34.009Z,16.47
2022-12-15T05:12:19.801Z,17.53
2022-12-15T05:15:07.995Z,14.73
2022-12-15T05:17:54.890Z,17.33
2022-12-15T05:20:42.898Z,14.77
2022-12-15T05:23:28.710Z,13.50
2022-12-15T05:26:17.500Z,15.63
2022-12-15T05:29:03.219Z,14.70
2022-12-15T05:31:52.141Z,17.70
2022-12-15T05:34:23.356Z,13.30
2022-12-15T05:36:51.867Z,16.00
2022-12-15T05:39:22.886Z,15.33
2022-12-15T05:41:53.882Z,12.30
2022-12-15T05:44:23.255Z,15.90
2022-12-15T05:46:51.537Z,12.17
2022-12-15T05:49:20.115Z,11.97
2022-12-15T05:51:49.837Z,13.23
2022-12-15T05:54:19.642Z,10.77
2022-12-15T05:56:50.300Z,11.77
2022-12-15T05:59:21.418Z,12.00
2022-12-15T06:01:51.751Z,13.17
2022-12-15T06:04:20.077Z,15.20
2022-12-15T06:06:51.797Z,18.17
2022-12-15T06:09:20.093Z,16.87
2022-12-15T06:11:48.271Z,17.27
2022-12-15T06:14:18.905Z,17.83
2022-12-15T06:16:50.359Z,14.90
2022-12-15T06:19:20.692Z,12.63
2022-12-15T06:21:49.110Z,13.30
2022-12-15T06:24:20.878Z,14.93
2022-12-15T06:26:49.556Z,13.93
2022-12-15T06:29:20.542Z,16.20
2022-12-15T06:31:50.965Z,14.83
2022-12-15T06:34:19.407Z,19.23
2022-12-15T06:36:50.250Z,17.90
2022-12-15T06:39:18.359Z,15.70
2022-12-15T06:41:47.784Z,17.07
2022-12-15T06:44:17.056Z,14.37
2022-12-15T06:46:47.638Z,18.07
2022-12-15T06:49:15.844Z,15.97
2022-12-15T06:51:44.982Z,17.13
2022-12-15T06:54:15.503Z,18.90
2022-12-15T06:56:47.019Z,13.20
2022-12-15T06:59:18.214Z,16.27
2022-12-15T07:01:46.481Z,13.87
2022-12-15T07:04:14.861Z,15.37
2022-12-15T07:06:43.118Z,15.30
2022-12-15T07:09:16.159Z,15.60
2022-12-15T07:11:45.115Z,16.30
2022-12-15T07:14:14.601Z,16.07
2022-12-15T07:16:42.864Z,14.30
2022-12-15T07:19:13.431Z,14.77
2022-12-15T07:21:44.092Z,14.37
2022-12-15T07:24:13.149Z,18.07
2022-12-15T07:26:44.775Z,14.97
2022-12-15T07:29:22.721Z,14.33
2022-12-15T07:31:53.893Z,12.20
2022-12-15T07:34:24.604Z,11.50
2022-12-15T07:36:55.355Z,14.97
2022-12-15T07:39:27.315Z,14.90
2022-12-15T07:41:55.497Z,11.57
2022-12-15T07:44:24.929Z,16.37
2022-12-15T07:46:55.431Z,14.23
2022-12-15T07:49:23.786Z,15.10
2022-12-15T07:51:51.914Z,15.93
2022-12-15T07:54:20.532Z,14.83
2022-12-15T07:56:50.252Z,13.03
2022-12-15T07:59:18.959Z,19.70
2022-12-15T08:01:49.657Z,15.97
2022-12-15T08:04:20.281Z,18.37
2022-12-15T08:06:51.345Z,14.97
2022-12-15T08:09:21.632Z,14.97
2022-12-15T08:11:52.309Z,13.97
2022-12-15T08:14:22.820Z,18.60
2022-12-15T08:16:52.675Z,15.73
2022-12-15T08:19:20.903Z,15.03
2022-12-15T08:21:49.141Z,18.50
2022-12-15T08:24:17.718Z,13.63
2022-12-15T08:26:50.040Z,19.10
2022-12-15T08:32:08.933Z,14.30
2022-12-15T08:34:37.210Z,15.13
2022-12-15T08:37:05.389Z,17.13
2022-12-15T08:39:33.510Z,13.57
2022-12-15T08:42:01.671Z,14.47
2022-12-15T08:44:29.800Z,16.60
2022-12-15T08:47:00.546Z,13.90
2022-12-15T08:49:30.188Z,14.97
2022-12-15T08:51:58.318Z,18.50
2022-12-15T08:54:29.107Z,17.73
2022-12-15T08:56:57.202Z,19.10
2022-12-15T08:59:25.994Z,26.60
2022-12-15T09:01:54.278Z,35.43
2022-12-15T09:04:22.519Z,35.43
2022-12-15T09:06:54.460Z,39.57
2022-12-15T09:09:22.682Z,36.63
2022-12-15T09:11:51.247Z,34.67
2022-12-15T09:14:28.600Z,35.37
2022-12-15T09:16:57.613Z,32.37
2022-12-15T09:19:26.345Z,35.53
2022-12-15T09:21:55.833Z,39.13
2022-12-15T09:24:34.767Z,37.83
2022-12-15T09:27:04.387Z,43.57
2022-12-15T09:29:32.763Z,40.10
2022-12-15T09:32:01.044Z,43.23
2022-12-15T09:34:29.254Z,63.53
2022-12-15T09:36:58.934Z,97.97
2022-12-15T09:39:27.165Z,97.27
2022-12-15T09:41:59.924Z,76.43
2022-12-15T09:44:30.503Z,64.00
2022-12-15T09:47:15.949Z,55.40
2022-12-15T09:49:54.410Z,43.47
2022-12-15T09:52:29.058Z,51.23
2022-12-15T09:55:01.600Z,44.70
2022-12-15T09:57:38.698Z,42.50
2022-12-15T10:00:21.016Z,40.10
2022-12-15T10:03:17.001Z,38.73
2022-12-15T10:08:54.620Z,28.87
2022-12-15T10:11:41.335Z,33.00
2022-12-15T10:14:22.380Z,24.60
2022-12-15T10:17:02.704Z,25.13
2022-12-15T10:19:40.954Z,26.13
2022-12-15T10:22:13.893Z,28.07
2022-12-15T10:25:09.340Z,25.53
2022-12-15T10:27:53.265Z,28.37
2022-12-15T10:30:23.218Z,29.50
2022-12-15T10:32:58.444Z,29.87
2022-12-15T10:35:30.217Z,29.80
2022-12-15T10:37:59.896Z,28.93
2022-12-15T10:40:49.954Z,36.50
2022-12-15T10:43:30.738Z,25.70
2022-12-15T10:46:06.459Z,27.57
2022-12-15T10:48:34.713Z,28.40
2022-12-15T10:51:16.615Z,32.60
2022-12-15T10:53:50.581Z,31.73
2022-12-15T10:56:28.839Z,30.10
2022-12-15T10:59:03.565Z,28.53
2022-12-15T11:01:34.117Z,35.13
2022-12-15T11:04:04.880Z,29.40
2022-12-15T11:06:36.803Z,31.93
2022-12-15T11:09:30.015Z,29.83
2022-12-15T11:12:19.989Z,31.30
2022-12-15T11:14:52.148Z,26.30
2022-12-15T11:17:22.278Z,34.47
2022-12-15T11:19:59.979Z,28.73
2022-12-15T11:22:39.633Z,28.73
2022-12-15T11:25:17.598Z,32.40
2022-12-15T11:27:49.968Z,34.63
2022-12-15T11:30:22.231Z,27.77
2022-12-15T11:32:56.353Z,30.73
2022-12-15T11:35:33.362Z,33.13
2022-12-15T11:38:09.985Z,34.10
2022-12-15T11:40:40.899Z,31.70
2022-12-15T11:43:52.819Z,28.30
2022-12-15T11:46:23.463Z,33.73
2022-12-15T11:49:26.241Z,28.67
2022-12-15T11:52:00.808Z,30.33
2022-12-15T11:54:39.564Z,31.57
2022-12-15T11:57:31.464Z,24.70
2022-12-15T12:00:05.610Z,30.27
2022-12-15T12:03:06.832Z,30.77
2022-12-15T12:05:47.447Z,28.17
2022-12-15T12:08:51.130Z,28.67
2022-12-15T12:11:26.338Z,27.33
2022-12-15T12:14:11.641Z,27.83
2022-12-15T12:16:50.317Z,33.70
2022-12-15T12:19:24.945Z,31.23
2022-12-15T12:22:01.460Z,25.63
2022-12-15T12:24:34.174Z,36.70
2022-12-15T12:27:06.094Z,31.27
2022-12-15T12:29:36.311Z,30.87
2022-12-15T12:32:14.230Z,32.40
2022-12-15T12:35:30.848Z,26.97
2022-12-15T12:38:03.348Z,38.83
2022-12-15T12:40:46.996Z,33.13
2022-12-15T12:43:31.659Z,31.30
2022-12-15T12:46:10.051Z,32.57
2022-12-15T12:48:42.857Z,32.23
2022-12-15T12:51:22.618Z,30.07
2022-12-15T12:53:51.735Z,29.33
2022-12-15T12:56:36.957Z,29.33
2022-12-15T12:59:38.725Z,29.20
2022-12-15T13:02:42.779Z,30.33
2022-12-15T13:05:28.579Z,31.37
2022-12-15T13:08:28.311Z,30.13
2022-12-15T13:10:57.267Z,27.03
2022-12-15T13:13:53.092Z,28.03
2022-12-15T13:16:25.556Z,26.80
2022-12-15T13:18:58.670Z,35.83
2022-12-15T13:21:55.017Z,30.00
2022-12-15T13:24:37.489Z,30.70
2022-12-15T13:27:16.185Z,27.93
2022-12-15T13:30:00.804Z,28.93
2022-12-15T13:32:35.136Z,33.97
2022-12-15T13:35:22.403Z,30.03
2022-12-15T13:37:54.507Z,29.37
2022-12-15T13:40:51.262Z,34.30
2022-12-15T13:43:42.536Z,29.60
2022-12-15T13:46:17.859Z,34.00
2022-12-15T13:48:49.361Z,30.97
2022-12-15T13:51:42.837Z,28.90
2022-12-15T13:54:18.663Z,30.67
2022-12-15T13:56:54.452Z,34.87
2022-12-15T13:59:30.521Z,29.87
2022-12-15T14:01:58.853Z,29.80
2022-12-15T14:04:27.677Z,28.67
2022-12-15T14:06:57.595Z,28.87
2022-12-15T14:09:32.133Z,32.97
2022-12-15T14:12:02.675Z,32.47
2022-12-15T14:14:34.531Z,35.37
2022-12-15T14:17:04.826Z,31.00
2022-12-15T14:19:41.240Z,32.07
2022-12-15T14:22:27.533Z,32.60
2022-12-15T14:25:03.653Z,34.23
2022-12-15T14:27:34.960Z,29.53
2022-12-15T14:30:29.272Z,29.57
2022-12-15T14:33:01.567Z,30.43
2022-12-15T14:35:37.679Z,32.00
2022-12-15T14:38:12.369Z,32.50
2022-12-15T14:40:46.297Z,32.97
2022-12-15T14:43:21.185Z,33.67
2022-12-15T14:45:56.695Z,36.30
2022-12-15T14:48:40.939Z,33.07
2022-12-15T14:51:14.435Z,34.37
2022-12-15T14:53:44.655Z,33.57
2022-12-15T14:56:30.077Z,33.67
2022-12-15T14:59:03.793Z,28.23
2022-12-15T15:01:40.008Z,30.57
2022-12-15T15:04:29.135Z,30.93
2022-12-15T15:07:00.220Z,30.63
2022-12-15T15:09:31.099Z,33.17
2022-12-15T15:12:05.216Z,32.77
2022-12-15T15:14:38.562Z,31.37
2022-12-15T15:17:09.739Z,38.83
2022-12-15T15:19:40.090Z,33.40
2022-12-15T15:22:28.398Z,30.43
2022-12-15T15:24:56.549Z,30.90
2022-12-15T15:27:35.965Z,28.90
2022-12-15T15:30:21.498Z,27.43
2022-12-15T15:32:54.545Z,29.23
2022-12-15T15:35:23.896Z,30.77
2022-12-15T15:37:53.562Z,30.37
2022-12-15T15:40:21.719Z,31.30
2022-12-15T15:42:53.350Z,29.47
2022-12-15T15:45:21.509Z,24.97
2022-12-15T15:47:52.554Z,34.17
2022-12-15T15:50:30.720Z,30.27
2022-12-15T15:52:59.538Z,26.47
2022-12-15T15:55:39.407Z,28.07
2022-12-15T15:58:13.240Z,29.70
2022-12-15T16:00:41.488Z,32.50
2022-12-15T16:03:10.820Z,29.70
2022-12-15T16:05:39.930Z,32.83
2022-12-15T16:08:08.694Z,30.77
2022-12-15T16:10:39.174Z,36.17
2022-12-15T16:13:07.412Z,34.47
2022-12-15T16:15:37.790Z,35.07
2022-12-15T16:18:06.145Z,38.63
2022-12-15T16:20:35.474Z,36.57
2022-12-15T16:23:07.826Z,31.67
2022-12-15T16:25:48.535Z,32.10
2022-12-15T16:28:20.370Z,33.37
2022-12-15T16:30:53.272Z,33.37
2022-12-15T16:33:22.289Z,33.63
2022-12-15T16:35:54.381Z,35.83
2022-12-15T16:38:26.152Z,38.57
2022-12-15T16:40:58.114Z,35.07
2022-12-15T16:43:32.868Z,35.70
2022-12-15T16:46:06.332Z,33.07
2022-12-15T16:48:35.881Z,33.40
2022-12-15T16:51:08.892Z,35.80
2022-12-15T16:53:40.268Z,36.20
2022-12-15T16:56:13.439Z,35.03
2022-12-15T16:58:48.498Z,30.67
2022-12-15T17:01:18.542Z,34.17
2022-12-15T17:03:47.228Z,34.60
2022-12-15T17:06:17.543Z,30.97
2022-12-15T17:08:50.745Z,35.63
2022-12-15T17:11:21.809Z,33.00
2022-12-15T17:13:54.698Z,37.07
2022-12-15T17:16:28.841Z,31.87
2022-12-15T17:18:59.498Z,33.80
2022-12-15T17:21:33.366Z,27.87
2022-12-15T17:24:05.650Z,28.67
2022-12-15T17:26:38.146Z,29.10
2022-12-15T17:29:10.066Z,30.50
2022-12-15T17:31:42.352Z,34.90
2022-12-15T17:34:25.649Z,32.13
2022-12-15T17:36:56.129Z,37.30
2022-12-15T17:39:27.735Z,36.10
2022-12-15T17:42:01.060Z,36.47
2022-12-15T17:44:35.784Z,33.87
2022-12-15T17:47:09.219Z,39.77
2022-12-15T17:49:38.854Z,39.87
2022-12-15T17:52:19.780Z,37.30
2022-12-15T17:54:48.115Z,36.83
2022-12-15T17:57:16.325Z,39.73
2022-12-15T17:59:44.596Z,39.40
2022-12-15T18:02:14.969Z,33.20
2022-12-15T18:04:44.019Z,35.87
2022-12-15T18:07:17.472Z,34.07
2022-12-15T18:09:48.741Z,33.23
2022-12-15T18:12:22.294Z,40.83
2022-12-15T18:14:53.137Z,37.10
2022-12-15T18:17:23.018Z,36.43
2022-12-15T18:19:53.507Z,44.60
2022-12-15T18:22:23.634Z,39.93
2022-12-15T18:24:55.224Z,40.90
2022-12-15T18:27:26.700Z,38.97
2022-12-15T18:29:57.691Z,38.67
2022-12-15T18:32:29.846Z,37.97
2022-12-15T18:34:58.386Z,39.27
2022-12-15T18:37:26.582Z,37.47
2022-12-15T18:39:57.113Z,41.07
2022-12-15T18:42:29.319Z,33.30
2022-12-15T18:45:00.376Z,34.83
2022-12-15T18:47:32.352Z,37.03
2022-12-15T18:50:00.571Z,35.47
2022-12-15T18:52:34.325Z,37.77
2022-12-15T18:55:03.040Z,33.93
2022-12-15T18:57:33.403Z,38.00
2022-12-15T19:00:04.684Z,43.50
2022-12-15T19:02:34.482Z,43.63
2022-12-15T19:05:02.725Z,44.20
2022-12-15T19:07:30.954Z,41.30
2022-12-15T19:10:00.082Z,43.53
2022-12-15T19:12:28.398Z,41.07
2022-12-15T19:14:57.372Z,40.97
2022-12-15T19:17:43.069Z,40.33
2022-12-15T19:20:35.716Z,38.67
2022-12-15T19:23:07.530Z,30.77
2022-12-15T19:25:39.752Z,38.30
2022-12-15T19:28:14.963Z,34.13
2022-12-15T19:30:43.668Z,37.03
2022-12-15T19:33:12.754Z,36.83
2022-12-15T19:35:44.623Z,37.17
2022-12-15T19:38:22.051Z,37.10
2022-12-15T19:40:53.397Z,37.90
2022-12-15T19:43:22.755Z,35.63
2022-12-15T19:45:52.258Z,35.93
2022-12-15T19:48:23.848Z,41.40
2022-12-15T19:50:54.726Z,38.20
2022-12-15T19:53:26.070Z,41.37
2022-12-15T19:56:01.306Z,40.17
2022-12-15T19:58:34.014Z,36.50
2022-12-15T20:01:08.451Z,33.10
2022-12-15T20:03:37.884Z,32.97
2022-12-15T20:06:14.357Z,35.47
2022-12-15T20:08:45.554Z,35.07
2022-12-15T20:11:19.305Z,38.40
2022-12-15T20:13:48.021Z,36.47
2022-12-15T20:16:19.269Z,34.77
2022-12-15T20:18:52.127Z,37.10
2022-12-15T20:21:23.401Z,35.83
2022-12-15T20:23:57.748Z,37.40
2022-12-15T20:26:27.090Z,34.37
2022-12-15T20:28:55.321Z,35.13
2022-12-15T20:31:25.652Z,37.30
2022-12-15T20:33:54.738Z,33.37
2022-12-15T20:36:27.406Z,39.27
2022-12-15T20:38:58.643Z,32.40
2022-12-15T20:41:28.788Z,35.27
2022-12-15T20:43:57.829Z,31.23
2022-12-15T20:46:32.840Z,34.83
2022-12-15T20:49:01.394Z,32.17
2022-12-15T20:51:33.256Z,35.90
2022-12-15T20:54:03.357Z,39.37
2022-12-15T20:56:31.588Z,40.03
2022-12-15T20:59:01.975Z,43.27
2022-12-15T21:01:32.862Z,43.73
2022-12-15T21:04:08.886Z,37.17
2022-12-15T21:06:38.427Z,37.80
2022-12-15T21:09:11.984Z,35.97
2022-12-15T21:11:41.051Z,33.60
2022-12-15T21:14:18.752Z,34.63
2022-12-15T21:16:49.642Z,31.77
2022-12-15T21:19:20.928Z,34.27
2022-12-15T21:21:55.866Z,32.83
2022-12-15T21:24:26.053Z,30.40
2022-12-15T21:26:54.827Z,29.50
2022-12-15T21:29:25.820Z,34.57
2022-12-15T21:31:54.561Z,31.40
2022-12-15T21:34:23.189Z,34.03
2022-12-15T21:36:55.076Z,32.63
2022-12-15T21:39:29.420Z,30.43
2022-12-15T21:42:00.678Z,32.80
2022-12-15T21:44:28.844Z,30.63
2022-12-15T21:46:57.120Z,31.93
2022-12-15T21:49:25.510Z,32.43
2022-12-15T21:51:57.575Z,31.37
2022-12-15T21:54:30.929Z,28.63
2022-12-15T21:57:02.684Z,32.03
2022-12-15T21:59:34.080Z,36.67
2022-12-15T22:02:02.861Z,39.43
2022-12-15T22:04:34.895Z,31.97
2022-12-15T22:07:07.161Z,35.93
2022-12-15T22:09:35.348Z,35.27
2022-12-15T22:12:03.847Z,34.30
2022-12-15T22:14:34.661Z,30.93
2022-12-15T22:17:12.943Z,33.73
2022-12-15T22:19:41.301Z,33.53
2022-12-15T22:22:13.093Z,27.77
2022-12-15T22:24:41.501Z,30.47
2022-12-15T22:27:18.951Z,32.33
2022-12-15T22:29:52.513Z,30.43
2022-12-15T22:32:20.819Z,29.50
2022-12-15T22:34:48.991Z,27.87
2022-12-15T22:37:18.480Z,33.27
2022-12-15T22:39:46.640Z,31.10
2022-12-15T22:42:17.657Z,27.57
2022-12-15T22:44:46.202Z,31.07
2022-12-15T22:47:14.550Z,33.53
2022-12-15T22:49:42.918Z,44.67
2022-12-15T22:52:18.574Z,50.50
2022-12-15T22:54:47.801Z,52.13
2022-12-15T22:57:23.116Z,45.00
2022-12-15T23:00:00.355Z,43.37
2022-12-15T23:02:29.958Z,45.20
2022-12-15T23:04:58.133Z,41.70
2022-12-15T23:07:28.640Z,42.37
2022-12-15T23:10:12.945Z,38.63
2022-12-15T23:12:43.457Z,39.17
2022-12-15T23:15:29.574Z,39.73
2022-12-15T23:17:57.686Z,31.47
2022-12-15T23:20:25.782Z,30.20
2022-12-15T23:22:55.189Z,29.67
2022-12-15T23:25:23.345Z,26.77
2022-12-15T23:27:51.567Z,27.20
2022-12-15T23:30:22.781Z,30.03
2022-12-15T23:32:51.044Z,31.40
2022-12-15T23:35:25.408Z,29.80
2022-12-15T23:37:54.906Z,27.50
2022-12-15T23:40:23.540Z,23.03
2022-12-15T23:42:52.380Z,28.00
2022-12-15T23:45:23.208Z,30.77
2022-12-15T23:47:53.767Z,26.83
2022-12-15T23:50:22.295Z,26.47
2022-12-15T23:52:51.834Z,25.43
2022-12-15T23:55:21.512Z,26.60
2022-12-15T23:57:49.786Z,26.90
